createdAt,value
2022-12-04T00:02:12.671Z,1.67
2022-12-04T00:04:39.230Z,2.08
2022-12-04T00:07:05.838Z,1.73
2022-12-04T00:09:32.327Z,1.50
2022-12-04T00:11:58.828Z,1.63
2022-12-04T00:14:25.381Z,1.63
2022-12-04T00:16:51.852Z,2.17
2022-12-04T00:19:18.526Z,1.30
2022-12-04T00:21:45.488Z,2.00
2022-12-04T00:24:12.201Z,1.58
2022-12-04T00:26:38.728Z,1.90
2022-12-04T00:29:05.207Z,1.88
2022-12-04T00:31:31.887Z,1.58
2022-12-04T00:33:58.671Z,1.88
2022-12-04T00:36:26.426Z,1.30
2022-12-04T00:38:52.974Z,1.75
2022-12-04T00:41:20.928Z,1.55
2022-12-04T00:43:47.487Z,1.63
2022-12-04T00:46:14.277Z,1.15
2022-12-04T00:48:41.145Z,1.20
2022-12-04T00:51:10.919Z,1.23
2022-12-04T00:53:37.860Z,1.60
2022-12-04T00:56:08.739Z,1.33
2022-12-04T00:58:35.737Z,1.30
2022-12-04T01:01:09.164Z,1.23
2022-12-04T01:03:36.067Z,2.10
2022-12-04T01:06:02.664Z,1.73
2022-12-04T01:08:29.356Z,1.30
2022-12-04T01:10:55.808Z,1.48
2022-12-04T01:13:23.085Z,1.98
2022-12-04T01:15:49.595Z,1.08
2022-12-04T01:18:16.100Z,1.42
2022-12-04T01:20:49.543Z,1.10
2022-12-04T01:23:16.235Z,1.52
2022-12-04T01:25:50.373Z,1.27
2022-12-04T01:28:16.906Z,1.13
2022-12-04T01:30:43.350Z,1.48
2022-12-04T01:33:09.818Z,1.23
2022-12-04T01:35:36.367Z,1.30
2022-12-04T01:38:03.064Z,1.20
2022-12-04T01:40:29.564Z,1.65
2022-12-04T01:42:56.024Z,1.48
2022-12-04T01:45:25.606Z,1.45
2022-12-04T01:47:54.754Z,1.15
2022-12-04T01:50:21.527Z,1.23
2022-12-04T01:52:48.093Z,1.48
2022-12-04T01:55:14.665Z,1.45
2022-12-04T01:57:42.680Z,1.67
2022-12-04T02:00:10.698Z,1.70
2022-12-04T02:02:39.414Z,1.48
2022-12-04T02:05:07.211Z,1.77
2022-12-04T02:07:34.126Z,1.83
2022-12-04T02:10:06.322Z,1.77
2022-12-04T02:12:38.997Z,1.60
2022-12-04T02:15:05.462Z,1.55
2022-12-04T02:17:31.914Z,2.42
2022-12-04T02:20:09.815Z,1.55
2022-12-04T02:22:55.901Z,1.63
2022-12-04T02:25:34.445Z,2.05
2022-12-04T02:28:04.009Z,1.58
2022-12-04T02:30:31.900Z,1.70
2022-12-04T02:33:06.296Z,2.22
2022-12-04T02:35:52.227Z,1.15
2022-12-04T02:38:22.760Z,2.20
2022-12-04T02:41:06.362Z,2.38
2022-12-04T02:43:34.792Z,2.15
2022-12-04T02:46:05.670Z,2.00
2022-12-04T02:48:33.563Z,1.80
2022-12-04T02:51:01.897Z,2.40
2022-12-04T02:53:40.445Z,2.17
2022-12-04T02:56:10.229Z,2.28
2022-12-04T02:58:40.575Z,2.10
2022-12-04T03:01:19.591Z,2.00
2022-12-04T03:03:52.538Z,2.25
2022-12-04T03:06:20.130Z,3.27
2022-12-04T03:08:49.232Z,1.58
2022-12-04T03:11:15.876Z,2.10
2022-12-04T03:13:47.527Z,2.15
2022-12-04T03:16:16.831Z,1.70
2022-12-04T03:18:49.601Z,1.75
2022-12-04T03:21:27.554Z,2.15
2022-12-04T03:24:06.704Z,2.67
2022-12-04T03:26:33.146Z,1.92
2022-12-04T03:29:19.879Z,2.28
2022-12-04T03:31:53.281Z,1.95
2022-12-04T03:34:26.207Z,3.35
2022-12-04T03:36:55.613Z,2.63
2022-12-04T03:39:27.734Z,2.85
2022-12-04T03:42:02.348Z,2.03
2022-12-04T03:44:34.800Z,2.15
2022-12-04T03:47:04.636Z,3.08
2022-12-04T03:49:37.217Z,1.95
2022-12-04T03:52:13.134Z,2.17
2022-12-04T03:54:44.382Z,2.20
2022-12-04T03:57:13.724Z,2.95
2022-12-04T04:00:05.918Z,2.67
2022-12-04T04:02:41.527Z,2.22
2022-12-04T04:05:09.739Z,2.00
2022-12-04T04:07:39.349Z,2.47
2022-12-04T04:10:13.683Z,1.67
2022-12-04T04:12:43.506Z,2.47
2022-12-04T04:15:30.618Z,2.15
2022-12-04T04:18:16.336Z,2.17
2022-12-04T04:21:03.446Z,2.05
2022-12-04T04:23:50.069Z,2.15
2022-12-04T04:26:17.179Z,1.75
2022-12-04T04:28:43.713Z,2.00
2022-12-04T04:31:13.681Z,1.83
2022-12-04T04:33:46.145Z,1.25
2022-12-04T04:36:18.445Z,2.50
2022-12-04T04:38:49.635Z,2.08
2022-12-04T04:41:28.958Z,2.10
2022-12-04T04:44:18.239Z,1.50
2022-12-04T04:46:47.403Z,1.50
2022-12-04T04:49:14.557Z,1.15
2022-12-04T04:51:41.305Z,1.35
2022-12-04T04:54:10.343Z,1.33
2022-12-04T04:56:44.259Z,1.85
2022-12-04T04:59:11.383Z,1.40
2022-12-04T05:01:39.043Z,1.10
2022-12-04T05:04:06.168Z,1.73
2022-12-04T05:06:32.630Z,1.88
2022-12-04T05:08:59.240Z,1.50
2022-12-04T05:11:25.846Z,1.50
2022-12-04T05:13:52.898Z,2.00
2022-12-04T05:16:19.477Z,1.35
2022-12-04T05:19:05.933Z,1.48
2022-12-04T05:21:33.186Z,1.92
2022-12-04T05:24:00.022Z,1.75
2022-12-04T05:26:26.537Z,1.30
2022-12-04T05:28:53.073Z,1.77
2022-12-04T05:31:19.605Z,1.45
2022-12-04T05:33:46.242Z,1.30
2022-12-04T05:36:13.479Z,1.80
2022-12-04T05:38:39.953Z,1.48
2022-12-04T05:41:07.015Z,1.98
2022-12-04T05:43:33.892Z,2.15
2022-12-04T05:46:01.190Z,1.50
2022-12-04T05:48:27.654Z,1.88
2022-12-04T05:50:54.146Z,1.45
2022-12-04T05:53:20.594Z,1.75
2022-12-04T05:55:54.071Z,1.35
2022-12-04T05:58:20.732Z,1.42
2022-12-04T06:00:47.244Z,1.15
2022-12-04T06:03:13.868Z,1.35
2022-12-04T06:05:40.357Z,1.05
2022-12-04T06:08:06.841Z,1.42
2022-12-04T06:10:33.381Z,2.35
2022-12-04T06:12:59.827Z,1.35
2022-12-04T06:15:26.395Z,1.90
2022-12-04T06:17:52.906Z,1.27
2022-12-04T06:20:19.469Z,1.20
2022-12-04T06:22:46.013Z,1.23
2022-12-04T06:25:12.468Z,1.70
2022-12-04T06:27:38.928Z,2.60
2022-12-04T06:30:05.777Z,0.68
2022-12-04T06:32:32.266Z,2.20
2022-12-04T06:34:58.748Z,1.20
2022-12-04T06:37:25.697Z,1.15
2022-12-04T06:39:52.159Z,1.25
2022-12-04T06:42:18.894Z,1.30
2022-12-04T06:44:45.436Z,0.80
2022-12-04T06:47:11.894Z,1.27
2022-12-04T06:49:38.449Z,1.50
2022-12-04T06:52:04.937Z,1.27
2022-12-04T06:54:31.408Z,1.40
2022-12-04T06:56:57.873Z,1.08
2022-12-04T06:59:24.322Z,2.30
2022-12-04T07:01:50.903Z,2.05
2022-12-04T07:04:17.476Z,2.13
2022-12-04T07:06:43.963Z,1.33
2022-12-04T07:09:12.017Z,1.75
2022-12-04T07:11:40.039Z,1.20
2022-12-04T07:14:06.577Z,2.25
2022-12-04T07:16:39.942Z,1.40
2022-12-04T07:19:07.305Z,1.63
2022-12-04T07:21:34.674Z,1.55
2022-12-04T07:24:01.515Z,2.30
2022-12-04T07:26:29.067Z,1.95
2022-12-04T07:28:56.122Z,1.52
2022-12-04T07:31:23.477Z,1.70
2022-12-04T07:33:50.442Z,1.48
2022-12-04T07:36:20.545Z,2.40
2022-12-04T07:38:47.224Z,1.70
2022-12-04T07:41:14.037Z,1.75
2022-12-04T07:43:40.971Z,1.88
2022-12-04T07:46:09.243Z,1.75
2022-12-04T07:48:35.910Z,1.90
2022-12-04T07:51:03.368Z,1.60
2022-12-04T07:53:29.853Z,1.75
2022-12-04T07:55:56.283Z,1.23
2022-12-04T07:58:22.768Z,2.72
2022-12-04T08:00:49.260Z,1.55
2022-12-04T08:03:15.727Z,1.70
2022-12-04T08:05:42.199Z,2.63
2022-12-04T08:08:08.755Z,1.77
2022-12-04T08:10:35.382Z,2.15
2022-12-04T08:13:01.966Z,1.55
2022-12-04T08:15:28.428Z,1.35
2022-12-04T08:17:54.906Z,1.63
2022-12-04T08:20:21.815Z,1.55
2022-12-04T08:22:48.458Z,1.75
2022-12-04T08:25:14.990Z,1.98
2022-12-04T08:27:47.688Z,1.75
2022-12-04T08:30:14.463Z,1.90
2022-12-04T08:32:41.001Z,2.85
2022-12-04T08:35:07.721Z,3.00
2022-12-04T08:37:34.403Z,1.50
2022-12-04T08:40:01.082Z,2.25
2022-12-04T08:42:27.878Z,2.33
2022-12-04T08:44:54.346Z,2.15
2022-12-04T08:47:21.070Z,2.13
2022-12-04T08:49:47.594Z,2.17
2022-12-04T08:52:14.090Z,1.88
2022-12-04T08:54:40.697Z,2.15
2022-12-04T08:57:07.229Z,2.13
2022-12-04T08:59:33.734Z,2.65
2022-12-04T09:02:00.261Z,2.95
2022-12-04T09:04:26.860Z,3.05
2022-12-04T09:06:53.410Z,3.03
2022-12-04T09:09:20.081Z,2.78
2022-12-04T09:11:46.638Z,2.20
2022-12-04T09:14:13.170Z,2.15
2022-12-04T09:16:39.649Z,2.78
2022-12-04T09:19:06.119Z,2.55
2022-12-04T09:21:32.605Z,1.80
2022-12-04T09:23:59.086Z,2.53
2022-12-04T09:26:29.820Z,1.98
2022-12-04T09:28:57.889Z,3.20
2022-12-04T09:31:25.074Z,1.70
2022-12-04T09:33:52.024Z,2.45
2022-12-04T09:36:18.625Z,2.10
2022-12-04T09:38:45.950Z,2.90
2022-12-04T09:41:15.460Z,3.60
2022-12-04T09:43:58.609Z,2.33
2022-12-04T09:46:28.211Z,2.70
2022-12-04T09:48:57.469Z,2.85
2022-12-04T09:51:26.311Z,2.03
2022-12-04T09:53:58.625Z,2.10
2022-12-04T09:56:27.597Z,2.20
2022-12-04T09:58:57.510Z,2.40
2022-12-04T10:01:44.206Z,2.55
2022-12-04T10:04:11.622Z,2.20
2022-12-04T10:06:44.396Z,1.70
2022-12-04T10:09:17.430Z,2.88
2022-12-04T10:11:49.950Z,2.75
2022-12-04T10:14:42.790Z,2.10
2022-12-04T10:17:29.307Z,2.67
2022-12-04T10:20:01.921Z,2.88
2022-12-04T10:22:33.181Z,2.88
2022-12-04T10:25:03.239Z,3.33
2022-12-04T10:27:31.778Z,3.30
2022-12-04T10:30:02.940Z,2.58
2022-12-04T10:32:31.476Z,2.95
2022-12-04T10:34:59.996Z,2.50
2022-12-04T10:37:26.835Z,3.63
2022-12-04T10:40:01.786Z,2.97
2022-12-04T10:42:32.965Z,2.88
2022-12-04T10:44:59.494Z,2.33
2022-12-04T10:47:26.388Z,3.00
2022-12-04T10:49:58.257Z,3.50
2022-12-04T10:52:24.781Z,1.95
2022-12-04T10:54:56.397Z,2.70
2022-12-04T10:57:22.962Z,2.38
2022-12-04T10:59:49.402Z,2.00
2022-12-04T11:02:27.225Z,2.03
2022-12-04T11:04:56.092Z,2.67
2022-12-04T11:07:27.743Z,3.05
2022-12-04T11:10:14.544Z,2.85
2022-12-04T11:12:40.994Z,2.55
2022-12-04T11:15:07.486Z,2.72
2022-12-04T11:17:34.020Z,2.40
2022-12-04T11:20:01.431Z,2.65
2022-12-04T11:22:28.249Z,1.92
2022-12-04T11:24:56.538Z,2.55
2022-12-04T11:27:29.261Z,2.40
2022-12-04T11:29:56.320Z,2.97
2022-12-04T11:32:25.314Z,2.53
2022-12-04T11:34:53.800Z,3.50
2022-12-04T11:37:27.718Z,2.25
2022-12-04T11:39:55.244Z,3.00
2022-12-04T11:42:26.167Z,2.45
2022-12-04T11:44:57.054Z,3.00
2022-12-04T11:47:26.210Z,3.03
2022-12-04T11:50:01.634Z,2.90
2022-12-04T11:52:46.969Z,2.83
2022-12-04T11:55:17.516Z,2.95
2022-12-04T11:57:43.971Z,2.95
2022-12-04T12:00:15.145Z,2.30
2022-12-04T12:02:41.668Z,2.95
2022-12-04T12:05:18.697Z,2.40
2022-12-04T12:08:05.415Z,2.95
2022-12-04T12:10:51.108Z,2.63
2022-12-04T12:13:27.432Z,2.55
2022-12-04T12:16:17.684Z,2.33
2022-12-04T12:18:44.201Z,2.70
2022-12-04T12:21:13.458Z,3.33
2022-12-04T12:24:06.369Z,2.30
2022-12-04T12:26:55.208Z,2.67
2022-12-04T12:29:29.518Z,1.98
2022-12-04T12:32:11.220Z,1.85
2022-12-04T12:34:39.333Z,1.50
2022-12-04T12:37:10.976Z,2.72
2022-12-04T12:39:42.805Z,1.95
2022-12-04T12:42:18.235Z,1.98
2022-12-04T12:45:14.122Z,2.25
2022-12-04T12:47:42.431Z,2.38
2022-12-04T12:50:09.155Z,2.42
2022-12-04T12:52:39.735Z,1.90
2022-12-04T12:55:24.624Z,2.33
2022-12-04T12:57:58.571Z,3.25
2022-12-04T13:00:25.666Z,2.25
2022-12-04T13:03:04.829Z,2.25
2022-12-04T13:05:40.865Z,2.85
2022-12-04T13:08:10.891Z,2.88
2022-12-04T13:10:49.446Z,2.13
2022-12-04T13:13:22.262Z,2.03
2022-12-04T13:15:50.771Z,2.67
2022-12-04T13:18:23.718Z,2.65
2022-12-04T13:20:52.973Z,1.57
2022-12-04T13:23:48.477Z,2.40
2022-12-04T13:26:14.981Z,1.52
2022-12-04T13:29:00.086Z,2.88
2022-12-04T13:31:42.310Z,2.35
2022-12-04T13:34:20.781Z,2.28
2022-12-04T13:36:56.917Z,2.55
2022-12-04T13:39:23.333Z,2.45
2022-12-04T13:41:57.830Z,3.10
2022-12-04T13:44:25.563Z,2.45
2022-12-04T13:46:55.061Z,1.90
2022-12-04T13:49:21.538Z,1.08
2022-12-04T13:51:49.211Z,1.45
2022-12-04T13:54:15.661Z,1.45
2022-12-04T13:56:43.322Z,1.70
2022-12-04T13:59:21.756Z,1.20
2022-12-04T14:02:02.242Z,1.73
2022-12-04T14:04:37.243Z,1.30
2022-12-04T14:07:04.094Z,2.28
2022-12-04T14:09:33.565Z,2.40
2022-12-04T14:12:02.026Z,1.63
2022-12-04T14:14:30.094Z,3.05
2022-12-04T14:16:58.177Z,3.50
2022-12-04T14:19:31.426Z,3.40
2022-12-04T14:21:58.869Z,4.03
2022-12-04T14:24:25.311Z,2.42
2022-12-04T14:29:47.568Z,1.50
2022-12-04T14:32:15.593Z,2.20
2022-12-04T14:34:42.149Z,1.98
2022-12-04T14:37:17.121Z,2.22
2022-12-04T14:39:45.548Z,3.42
2022-12-04T14:42:15.215Z,2.33
2022-12-04T14:44:43.547Z,3.17
2022-12-04T14:47:33.404Z,1.50
2022-12-04T14:50:35.064Z,2.40
2022-12-04T14:53:13.557Z,1.70
2022-12-04T14:56:05.923Z,2.05
2022-12-04T14:58:36.914Z,1.25
2022-12-04T15:01:18.317Z,1.50
2022-12-04T15:03:46.577Z,2.00
2022-12-04T15:06:25.552Z,2.33
2022-12-04T15:08:53.980Z,2.60
2022-12-04T15:11:39.549Z,1.52
2022-12-04T15:14:13.957Z,1.70
2022-12-04T15:16:40.485Z,1.30
2022-12-04T15:19:15.962Z,2.15
2022-12-04T15:21:42.636Z,2.45
2022-12-04T15:24:09.926Z,1.83
2022-12-04T15:26:37.042Z,2.08
2022-12-04T15:29:04.602Z,1.80
2022-12-04T15:31:31.124Z,1.90
2022-12-04T15:34:02.246Z,1.60
2022-12-04T15:36:28.691Z,2.17
2022-12-04T15:38:55.580Z,2.20
2022-12-04T15:41:35.561Z,1.60
2022-12-04T15:44:02.669Z,1.55
2022-12-04T15:46:37.987Z,1.80
2022-12-04T15:49:05.487Z,2.33
2022-12-04T15:51:32.255Z,3.45
2022-12-04T15:53:58.737Z,1.73
2022-12-04T15:56:25.655Z,2.67
2022-12-04T15:59:00.032Z,2.30
2022-12-04T16:01:27.034Z,2.05
2022-12-04T16:03:54.882Z,2.53
2022-12-04T16:06:24.567Z,2.00
2022-12-04T16:08:52.549Z,1.98
2022-12-04T16:11:19.002Z,4.18
2022-12-04T16:13:45.785Z,2.00
2022-12-04T16:16:14.252Z,1.48
2022-12-04T16:18:40.883Z,1.88
2022-12-04T16:21:11.058Z,2.95
2022-12-04T16:23:37.556Z,2.25
2022-12-04T16:26:04.047Z,2.65
2022-12-04T16:28:30.559Z,2.40
2022-12-04T16:30:57.087Z,3.80
2022-12-04T16:33:23.653Z,3.58
2022-12-04T16:35:50.177Z,3.05
2022-12-04T16:38:17.186Z,1.90
2022-12-04T16:40:45.206Z,2.08
2022-12-04T16:43:12.998Z,1.20
2022-12-04T16:45:42.159Z,2.67
2022-12-04T16:48:08.690Z,2.15
2022-12-04T16:50:35.392Z,3.50
2022-12-04T16:53:01.985Z,3.90
2022-12-04T16:55:33.821Z,2.72
2022-12-04T16:58:00.509Z,2.67
2022-12-04T17:00:27.198Z,2.50
2022-12-04T17:02:53.769Z,2.45
2022-12-04T17:05:21.819Z,2.13
2022-12-04T17:07:48.538Z,1.83
2022-12-04T17:10:18.917Z,2.00
2022-12-04T17:12:51.457Z,1.95
2022-12-04T17:15:17.972Z,5.10
2022-12-04T17:17:44.433Z,4.50
2022-12-04T17:20:15.424Z,3.38
2022-12-04T17:22:42.208Z,3.55
2022-12-04T17:25:08.996Z,5.65
2022-12-04T17:27:35.760Z,2.42
2022-12-04T17:30:02.660Z,2.13
2022-12-04T17:32:32.780Z,1.67
2022-12-04T17:34:59.531Z,1.90
2022-12-04T17:37:26.153Z,2.28
2022-12-04T17:39:52.714Z,2.53
2022-12-04T17:42:19.440Z,1.45
2022-12-04T17:44:45.990Z,1.92
2022-12-04T17:47:12.582Z,1.83
2022-12-04T17:49:39.372Z,2.20
2022-12-04T17:52:05.869Z,1.50
2022-12-04T17:54:32.645Z,2.40
2022-12-04T17:56:59.585Z,1.88
2022-12-04T17:59:26.105Z,1.88
2022-12-04T18:01:52.663Z,2.28
2022-12-04T18:04:19.665Z,2.10
2022-12-04T18:06:46.834Z,1.60
2022-12-04T18:09:14.506Z,1.83
2022-12-04T18:11:42.385Z,1.35
2022-12-04T18:14:12.264Z,1.48
2022-12-04T18:16:41.023Z,1.73
2022-12-04T18:19:07.813Z,2.30
2022-12-04T18:21:34.564Z,2.80
2022-12-04T18:24:04.007Z,2.83
2022-12-04T18:26:38.254Z,2.33
2022-12-04T18:29:05.489Z,2.00
2022-12-04T18:31:32.290Z,2.10
2022-12-04T18:33:58.853Z,1.90
2022-12-04T18:36:26.642Z,2.25
2022-12-04T18:38:57.828Z,1.80
2022-12-04T18:41:25.005Z,2.17
2022-12-04T18:43:51.853Z,2.17
2022-12-04T18:46:18.968Z,3.78
2022-12-04T18:48:46.205Z,4.00
2022-12-04T18:51:15.899Z,2.17
2022-12-04T18:53:42.488Z,2.70
2022-12-04T18:56:09.088Z,3.30
2022-12-04T18:58:35.572Z,3.58
2022-12-04T19:01:20.186Z,2.92
2022-12-04T19:03:47.429Z,2.90
2022-12-04T19:06:14.197Z,1.58
2022-12-04T19:08:43.388Z,2.08
2022-12-04T19:11:13.457Z,1.75
2022-12-04T19:13:40.442Z,2.13
2022-12-04T19:16:11.380Z,3.22
2022-12-04T19:18:37.909Z,2.60
2022-12-04T19:21:08.506Z,2.72
2022-12-04T19:23:37.325Z,2.40
2022-12-04T19:26:04.203Z,2.28
2022-12-04T19:28:30.722Z,2.83
2022-12-04T19:30:57.276Z,2.40
2022-12-04T19:33:25.039Z,2.42
2022-12-04T19:35:58.817Z,1.92
2022-12-04T19:41:02.058Z,3.20
2022-12-04T19:43:28.580Z,2.17
2022-12-04T19:46:04.649Z,10.15
2022-12-04T19:48:32.534Z,27.00
2022-12-04T19:51:04.004Z,28.20
2022-12-04T19:53:30.599Z,34.70
2022-12-04T19:55:57.319Z,36.10
2022-12-04T19:58:29.607Z,110.75
2022-12-04T20:03:40.393Z,42.90
2022-12-04T20:08:57.195Z,16.55
2022-12-04T20:11:24.280Z,40.42
2022-12-04T20:13:54.091Z,13.82
2022-12-04T20:16:20.884Z,7.70
2022-12-04T20:18:47.419Z,42.15
2022-12-04T20:21:14.270Z,13.57
2022-12-04T20:23:46.502Z,14.05
2022-12-04T20:26:13.897Z,18.70
2022-12-04T20:28:40.761Z,11.43
2022-12-04T20:31:11.662Z,15.50
2022-12-04T20:33:38.192Z,16.90
2022-12-04T20:36:04.862Z,9.88
2022-12-04T20:38:31.410Z,6.15
2022-12-04T20:41:01.750Z,7.20
2022-12-04T20:43:28.285Z,109.88
2022-12-04T20:45:54.863Z,86.28
2022-12-04T20:48:21.399Z,15.23
2022-12-04T20:50:48.165Z,18.23
2022-12-04T20:53:14.688Z,22.33
2022-12-04T20:55:41.285Z,14.50
2022-12-04T20:58:07.776Z,16.75
2022-12-04T21:00:34.317Z,17.50
2022-12-04T21:03:00.807Z,11.45
2022-12-04T21:05:27.358Z,4.70
2022-12-04T21:07:57.936Z,8.27
2022-12-04T21:10:24.476Z,10.05
2022-12-04T21:13:09.702Z,9.57
2022-12-04T21:15:55.037Z,4.30
2022-12-04T21:18:21.942Z,5.43
2022-12-04T21:20:48.454Z,2.80
2022-12-04T21:23:15.004Z,4.30
2022-12-04T21:25:41.514Z,2.28
2022-12-04T21:28:07.982Z,2.53
2022-12-04T21:30:35.210Z,2.78
2022-12-04T21:33:01.746Z,2.67
2022-12-04T21:35:29.483Z,2.03
2022-12-04T21:37:57.057Z,1.92
2022-12-04T21:40:23.632Z,2.67
2022-12-04T21:42:50.272Z,12.10
2022-12-04T21:45:16.803Z,3.10
2022-12-04T21:47:43.270Z,4.10
2022-12-04T21:50:10.037Z,2.78
2022-12-04T21:52:36.742Z,4.97
2022-12-04T21:55:03.481Z,4.88
2022-12-04T21:57:29.992Z,1.63
2022-12-04T21:59:56.883Z,3.45
2022-12-04T22:02:24.745Z,6.95
2022-12-04T22:04:51.325Z,4.93
2022-12-04T22:07:17.803Z,5.55
2022-12-04T22:09:44.407Z,6.82
2022-12-04T22:12:33.250Z,4.07
2022-12-04T22:14:57.554Z,1.58
2022-12-04T22:17:24.248Z,2.10
2022-12-04T22:19:50.735Z,2.95
2022-12-04T22:22:17.276Z,2.00
2022-12-04T22:24:43.952Z,1.70
2022-12-04T22:27:15.033Z,1.85
2022-12-04T22:29:50.193Z,2.70
2022-12-04T22:32:28.005Z,1.92
2022-12-04T22:34:54.498Z,2.10
2022-12-04T22:37:20.982Z,2.05
2022-12-04T22:39:47.525Z,1.60
2022-12-04T22:42:14.126Z,2.50
2022-12-04T22:44:40.606Z,1.35
2022-12-04T22:47:07.264Z,1.42
2022-12-04T22:49:33.913Z,1.25
2022-12-04T22:52:00.828Z,1.70
2022-12-04T22:54:27.354Z,0.98
2022-12-04T22:56:53.850Z,1.83
2022-12-04T22:59:20.358Z,1.30
2022-12-04T23:01:46.851Z,1.40
2022-12-04T23:04:13.386Z,1.02
2022-12-04T23:06:40.043Z,1.55
2022-12-04T23:09:12.642Z,1.80
2022-12-04T23:11:39.699Z,1.20
2022-12-04T23:14:08.376Z,1.65
2022-12-04T23:16:36.016Z,1.60
2022-12-04T23:19:02.754Z,1.85
2022-12-04T23:21:29.648Z,2.70
2022-12-04T23:23:56.245Z,1.00
2022-12-04T23:26:24.992Z,1.63
2022-12-04T23:28:51.854Z,2.30
2022-12-04T23:31:18.384Z,1.23
2022-12-04T23:33:45.393Z,1.48
2022-12-04T23:36:12.278Z,1.20
2022-12-04T23:38:39.884Z,1.67
2022-12-04T23:41:08.044Z,1.90
2022-12-04T23:43:35.004Z,2.03
2022-12-04T23:46:05.887Z,1.83
2022-12-04T23:48:37.144Z,1.52
2022-12-04T23:51:03.689Z,1.50
2022-12-04T23:53:30.180Z,1.25
2022-12-04T23:56:17.052Z,1.20
2022-12-04T23:58:44.724Z,1.60
